Terminal Aerodrome Forecast
Issued by NWS

Current Version | Previous Version | Text Only | Print | Product List | Glossary On
Versions: 1 2 3 4 5 6 7 8 9 10 11 12 13 14
000
FTUS44 KTSA 301133
TAFBVO
TAF
KBVO 301133Z 3012/3112 05004KT P6SM SKC
      TEMPO 3012/3014 3SM BR
     FM301800 11006KT P6SM SCT040
     FM310100 00000KT P6SM SKC=

USA.gov is the U.S. government's official web portal to all federal, state and local government web resources and services.